sensor_id;sensor_type;location;lat;lon;timestamp;P1;durP1;ratioP1;P2;durP2;ratioP2
18793;SDS011;29610;49.022;12.114;2023-04-25T00:01:48;7.23;;;2.57;;
18793;SDS011;29610;49.022;12.114;2023-04-25T00:04:38;6.80;;;2.53;;
18793;SDS011;29610;49.022;12.114;2023-04-25T00:07:29;6.53;;;2.10;;
18793;SDS011;29610;49.022;12.114;2023-04-25T00:10:18;6.20;;;2.43;;
18793;SDS011;29610;49.022;12.114;2023-04-25T00:13:07;7.50;;;2.40;;
18793;SDS011;29610;49.022;12.114;2023-04-25T00:15:58;8.43;;;2.60;;
18793;SDS011;29610;49.022;12.114;2023-04-25T00:18:47;7.07;;;2.73;;
18793;SDS011;29610;49.022;12.114;2023-04-25T00:21:38;7.77;;;2.60;;
18793;SDS011;29610;49.022;12.114;2023-04-25T00:24:29;6.60;;;2.60;;
18793;SDS011;29610;49.022;12.114;2023-04-25T00:27:18;6.97;;;2.40;;
18793;SDS011;29610;49.022;12.114;2023-04-25T00:30:07;7.73;;;2.83;;
18793;SDS011;29610;49.022;12.114;2023-04-25T00:32:57;11.93;;;2.70;;
18793;SDS011;29610;49.022;12.114;2023-04-25T00:35:47;6.70;;;2.83;;
18793;SDS011;29610;49.022;12.114;2023-04-25T00:38:36;9.23;;;3.30;;
18793;SDS011;29610;49.022;12.114;2023-04-25T00:41:26;7.83;;;3.07;;
18793;SDS011;29610;49.022;12.114;2023-04-25T00:44:17;7.20;;;2.90;;
18793;SDS011;29610;49.022;12.114;2023-04-25T00:47:06;9.13;;;3.07;;
18793;SDS011;29610;49.022;12.114;2023-04-25T00:49:56;7.20;;;2.60;;
18793;SDS011;29610;49.022;12.114;2023-04-25T00:52:45;7.93;;;3.20;;
18793;SDS011;29610;49.022;12.114;2023-04-25T00:55:34;7.50;;;2.97;;
18793;SDS011;29610;49.022;12.114;2023-04-25T00:58:24;8.20;;;3.20;;
18793;SDS011;29610;49.022;12.114;2023-04-25T01:01:14;6.73;;;2.57;;
18793;SDS011;29610;49.022;12.114;2023-04-25T01:04:03;7.70;;;2.90;;
18793;SDS011;29610;49.022;12.114;2023-04-25T01:06:53;7.47;;;3.30;;
18793;SDS011;29610;49.022;12.114;2023-04-25T01:09:42;11.50;;;2.93;;
18793;SDS011;29610;49.022;12.114;2023-04-25T01:12:31;7.50;;;3.10;;
18793;SDS011;29610;49.022;12.114;2023-04-25T01:15:22;6.70;;;2.80;;
18793;SDS011;29610;49.022;12.114;2023-04-25T01:18:13;9.23;;;3.67;;
18793;SDS011;29610;49.022;12.114;2023-04-25T01:21:08;6.50;;;2.83;;
18793;SDS011;29610;49.022;12.114;2023-04-25T01:23:58;8.83;;;3.83;;
18793;SDS011;29610;49.022;12.114;2023-04-25T01:26:47;9.93;;;3.33;;
18793;SDS011;29610;49.022;12.114;2023-04-25T01:29:42;10.23;;;3.30;;
18793;SDS011;29610;49.022;12.114;2023-04-25T01:32:32;8.60;;;3.10;;
18793;SDS011;29610;49.022;12.114;2023-04-25T01:35:25;7.63;;;3.47;;
18793;SDS011;29610;49.022;12.114;2023-04-25T01:38:16;8.80;;;3.10;;
18793;SDS011;29610;49.022;12.114;2023-04-25T01:41:05;7.97;;;3.30;;
18793;SDS011;29610;49.022;12.114;2023-04-25T01:43:55;9.40;;;3.90;;
18793;SDS011;29610;49.022;12.114;2023-04-25T01:46:44;8.33;;;4.10;;
18793;SDS011;29610;49.022;12.114;2023-04-25T01:49:33;8.60;;;3.47;;
18793;SDS011;29610;49.022;12.114;2023-04-25T01:52:22;8.30;;;3.30;;
18793;SDS011;29610;49.022;12.114;2023-04-25T01:55:12;8.43;;;3.77;;
18793;SDS011;29610;49.022;12.114;2023-04-25T01:58:11;8.77;;;3.60;;
18793;SDS011;29610;49.022;12.114;2023-04-25T02:01:20;10.47;;;4.40;;
18793;SDS011;29610;49.022;12.114;2023-04-25T02:04:25;9.07;;;3.73;;
18793;SDS011;29610;49.022;12.114;2023-04-25T02:07:15;10.67;;;3.70;;
18793;SDS011;29610;49.022;12.114;2023-04-25T02:10:10;8.60;;;4.17;;
18793;SDS011;29610;49.022;12.114;2023-04-25T02:13:14;8.70;;;3.77;;
18793;SDS011;29610;49.022;12.114;2023-04-25T02:16:18;8.23;;;3.77;;
18793;SDS011;29610;49.022;12.114;2023-04-25T02:19:07;8.87;;;3.93;;
18793;SDS011;29610;49.022;12.114;2023-04-25T02:21:57;7.90;;;3.47;;
18793;SDS011;29610;49.022;12.114;2023-04-25T02:24:46;8.10;;;3.47;;
18793;SDS011;29610;49.022;12.114;2023-04-25T02:27:36;9.40;;;4.00;;
18793;SDS011;29610;49.022;12.114;2023-04-25T02:30:27;13.30;;;3.90;;
18793;SDS011;29610;49.022;12.114;2023-04-25T02:33:16;8.50;;;3.83;;
18793;SDS011;29610;49.022;12.114;2023-04-25T02:36:05;13.53;;;4.13;;
18793;SDS011;29610;49.022;12.114;2023-04-25T02:38:55;9.50;;;4.03;;
18793;SDS011;29610;49.022;12.114;2023-04-25T02:41:43;9.40;;;4.30;;
18793;SDS011;29610;49.022;12.114;2023-04-25T02:44:34;8.00;;;3.50;;
18793;SDS011;29610;49.022;12.114;2023-04-25T02:47:24;8.10;;;3.50;;
18793;SDS011;29610;49.022;12.114;2023-04-25T02:50:14;11.10;;;4.03;;
18793;SDS011;29610;49.022;12.114;2023-04-25T02:53:03;8.23;;;3.70;;
18793;SDS011;29610;49.022;12.114;2023-04-25T02:55:57;8.53;;;3.67;;
18793;SDS011;29610;49.022;12.114;2023-04-25T02:58:46;8.40;;;3.70;;
18793;SDS011;29610;49.022;12.114;2023-04-25T03:01:36;10.23;;;4.20;;
18793;SDS011;29610;49.022;12.114;2023-04-25T03:04:25;11.70;;;3.77;;
18793;SDS011;29610;49.022;12.114;2023-04-25T03:07:14;8.50;;;3.73;;
18793;SDS011;29610;49.022;12.114;2023-04-25T03:10:04;9.20;;;3.63;;
18793;SDS011;29610;49.022;12.114;2023-04-25T03:12:55;7.43;;;3.13;;
18793;SDS011;29610;49.022;12.114;2023-04-25T03:15:44;7.60;;;3.80;;
18793;SDS011;29610;49.022;12.114;2023-04-25T03:18:34;9.00;;;2.97;;
18793;SDS011;29610;49.022;12.114;2023-04-25T03:21:23;8.63;;;4.33;;
18793;SDS011;29610;49.022;12.114;2023-04-25T03:24:13;7.60;;;3.63;;
18793;SDS011;29610;49.022;12.114;2023-04-25T03:27:02;9.10;;;3.80;;
18793;SDS011;29610;49.022;12.114;2023-04-25T03:29:51;15.87;;;4.37;;
18793;SDS011;29610;49.022;12.114;2023-04-25T03:32:41;7.83;;;3.60;;
18793;SDS011;29610;49.022;12.114;2023-04-25T03:35:36;9.83;;;4.63;;
18793;SDS011;29610;49.022;12.114;2023-04-25T03:38:26;12.20;;;3.97;;
18793;SDS011;29610;49.022;12.114;2023-04-25T03:41:15;10.33;;;4.30;;
18793;SDS011;29610;49.022;12.114;2023-04-25T03:44:12;10.17;;;4.03;;
18793;SDS011;29610;49.022;12.114;2023-04-25T03:47:01;7.77;;;3.60;;
18793;SDS011;29610;49.022;12.114;2023-04-25T03:49:50;10.43;;;4.33;;
18793;SDS011;29610;49.022;12.114;2023-04-25T03:52:43;11.13;;;4.17;;
18793;SDS011;29610;49.022;12.114;2023-04-25T03:55:33;8.60;;;3.30;;
18793;SDS011;29610;49.022;12.114;2023-04-25T03:58:22;7.67;;;3.23;;
18793;SDS011;29610;49.022;12.114;2023-04-25T04:01:11;7.07;;;3.33;;
18793;SDS011;29610;49.022;12.114;2023-04-25T04:04:01;9.30;;;3.47;;
18793;SDS011;29610;49.022;12.114;2023-04-25T04:06:50;9.20;;;3.77;;
18793;SDS011;29610;49.022;12.114;2023-04-25T04:09:50;7.50;;;3.00;;
18793;SDS011;29610;49.022;12.114;2023-04-25T04:12:45;8.90;;;3.33;;
18793;SDS011;29610;49.022;12.114;2023-04-25T04:15:34;10.33;;;3.60;;
18793;SDS011;29610;49.022;12.114;2023-04-25T04:18:23;9.03;;;4.00;;
18793;SDS011;29610;49.022;12.114;2023-04-25T04:21:14;7.60;;;3.20;;
18793;SDS011;29610;49.022;12.114;2023-04-25T04:24:03;8.30;;;3.43;;
18793;SDS011;29610;49.022;12.114;2023-04-25T04:27:07;10.60;;;3.60;;
18793;SDS011;29610;49.022;12.114;2023-04-25T04:30:12;8.20;;;3.37;;
18793;SDS011;29610;49.022;12.114;2023-04-25T04:33:16;8.43;;;3.50;;
18793;SDS011;29610;49.022;12.114;2023-04-25T04:36:11;7.40;;;2.97;;
18793;SDS011;29610;49.022;12.114;2023-04-25T04:39:00;8.63;;;3.70;;
18793;SDS011;29610;49.022;12.114;2023-04-25T04:42:15;10.83;;;3.30;;
18793;SDS011;29610;49.022;12.114;2023-04-25T04:45:25;7.17;;;3.03;;
18793;SDS011;29610;49.022;12.114;2023-04-25T04:48:41;7.90;;;3.30;;
18793;SDS011;29610;49.022;12.114;2023-04-25T04:52:02;8.67;;;3.60;;
18793;SDS011;29610;49.022;12.114;2023-04-25T04:55:00;7.50;;;2.87;;
18793;SDS011;29610;49.022;12.114;2023-04-25T04:58:10;7.73;;;3.10;;
18793;SDS011;29610;49.022;12.114;2023-04-25T05:01:11;8.00;;;3.47;;
18793;SDS011;29610;49.022;12.114;2023-04-25T05:04:15;8.40;;;3.20;;
18793;SDS011;29610;49.022;12.114;2023-04-25T05:07:23;7.77;;;3.10;;
18793;SDS011;29610;49.022;12.114;2023-04-25T05:10:24;8.63;;;3.03;;
18793;SDS011;29610;49.022;12.114;2023-04-25T05:13:17;10.00;;;3.70;;
18793;SDS011;29610;49.022;12.114;2023-04-25T05:16:20;8.67;;;3.20;;
18793;SDS011;29610;49.022;12.114;2023-04-25T05:19:17;16.33;;;3.30;;
18793;SDS011;29610;49.022;12.114;2023-04-25T05:22:26;10.77;;;3.93;;
18793;SDS011;29610;49.022;12.114;2023-04-25T05:25:36;8.43;;;3.63;;
18793;SDS011;29610;49.022;12.114;2023-04-25T05:28:31;11.87;;;4.13;;
18793;SDS011;29610;49.022;12.114;2023-04-25T05:31:41;9.10;;;4.13;;
18793;SDS011;29610;49.022;12.114;2023-04-25T05:34:34;10.73;;;4.40;;
18793;SDS011;29610;49.022;12.114;2023-04-25T05:37:27;9.70;;;4.07;;
18793;SDS011;29610;49.022;12.114;2023-04-25T05:40:25;8.70;;;4.27;;
18793;SDS011;29610;49.022;12.114;2023-04-25T05:43:32;8.90;;;4.20;;
18793;SDS011;29610;49.022;12.114;2023-04-25T05:46:41;8.53;;;4.53;;
18793;SDS011;29610;49.022;12.114;2023-04-25T05:49:55;11.27;;;4.90;;
18793;SDS011;29610;49.022;12.114;2023-04-25T05:53:12;8.67;;;3.60;;
18793;SDS011;29610;49.022;12.114;2023-04-25T05:56:03;9.63;;;3.50;;
18793;SDS011;29610;49.022;12.114;2023-04-25T05:58:56;10.40;;;4.97;;
18793;SDS011;29610;49.022;12.114;2023-04-25T06:01:47;8.83;;;4.13;;
18793;SDS011;29610;49.022;12.114;2023-04-25T06:04:36;8.93;;;3.13;;
18793;SDS011;29610;49.022;12.114;2023-04-25T06:07:25;8.80;;;3.50;;
18793;SDS011;29610;49.022;12.114;2023-04-25T06:10:14;8.17;;;3.80;;
18793;SDS011;29610;49.022;12.114;2023-04-25T06:13:05;8.40;;;3.17;;
18793;SDS011;29610;49.022;12.114;2023-04-25T06:15:57;7.60;;;3.00;;
18793;SDS011;29610;49.022;12.114;2023-04-25T06:18:46;16.07;;;3.30;;
18793;SDS011;29610;49.022;12.114;2023-04-25T06:21:35;11.77;;;3.20;;
18793;SDS011;29610;49.022;12.114;2023-04-25T06:24:26;10.10;;;3.00;;
18793;SDS011;29610;49.022;12.114;2023-04-25T06:27:15;7.10;;;2.63;;
18793;SDS011;29610;49.022;12.114;2023-04-25T06:30:06;9.10;;;2.93;;
18793;SDS011;29610;49.022;12.114;2023-04-25T06:32:58;7.60;;;2.60;;
18793;SDS011;29610;49.022;12.114;2023-04-25T06:35:48;9.03;;;2.80;;
18793;SDS011;29610;49.022;12.114;2023-04-25T06:38:45;8.33;;;3.07;;
18793;SDS011;29610;49.022;12.114;2023-04-25T06:41:35;10.63;;;2.77;;
18793;SDS011;29610;49.022;12.114;2023-04-25T06:44:26;8.73;;;2.83;;
18793;SDS011;29610;49.022;12.114;2023-04-25T06:47:17;7.70;;;2.77;;
18793;SDS011;29610;49.022;12.114;2023-04-25T06:50:11;7.00;;;2.50;;
18793;SDS011;29610;49.022;12.114;2023-04-25T06:53:01;8.20;;;2.90;;
18793;SDS011;29610;49.022;12.114;2023-04-25T06:55:51;12.67;;;3.40;;
18793;SDS011;29610;49.022;12.114;2023-04-25T06:58:42;8.03;;;2.90;;
18793;SDS011;29610;49.022;12.114;2023-04-25T07:01:41;8.13;;;3.07;;
18793;SDS011;29610;49.022;12.114;2023-04-25T07:04:35;8.40;;;2.47;;
18793;SDS011;29610;49.022;12.114;2023-04-25T07:07:26;6.90;;;2.60;;
18793;SDS011;29610;49.022;12.114;2023-04-25T07:10:18;7.07;;;3.03;;
18793;SDS011;29610;49.022;12.114;2023-04-25T07:13:08;8.07;;;2.90;;
18793;SDS011;29610;49.022;12.114;2023-04-25T07:15:58;10.20;;;2.80;;
18793;SDS011;29610;49.022;12.114;2023-04-25T07:18:49;8.10;;;3.03;;
18793;SDS011;29610;49.022;12.114;2023-04-25T07:21:40;7.87;;;3.00;;
18793;SDS011;29610;49.022;12.114;2023-04-25T07:24:31;8.10;;;2.47;;
18793;SDS011;29610;49.022;12.114;2023-04-25T07:27:21;8.03;;;2.80;;
18793;SDS011;29610;49.022;12.114;2023-04-25T07:30:22;7.40;;;2.33;;
18793;SDS011;29610;49.022;12.114;2023-04-25T07:33:11;7.93;;;2.90;;
18793;SDS011;29610;49.022;12.114;2023-04-25T07:36:00;7.37;;;2.80;;
18793;SDS011;29610;49.022;12.114;2023-04-25T07:38:50;8.20;;;2.73;;
18793;SDS011;29610;49.022;12.114;2023-04-25T07:41:41;7.80;;;2.90;;
18793;SDS011;29610;49.022;12.114;2023-04-25T07:44:38;8.07;;;2.63;;
18793;SDS011;29610;49.022;12.114;2023-04-25T07:47:31;7.83;;;2.50;;
18793;SDS011;29610;49.022;12.114;2023-04-25T07:50:21;9.23;;;3.40;;
18793;SDS011;29610;49.022;12.114;2023-04-25T07:53:10;11.57;;;3.10;;
18793;SDS011;29610;49.022;12.114;2023-04-25T07:56:06;8.30;;;2.83;;
18793;SDS011;29610;49.022;12.114;2023-04-25T07:59:02;7.90;;;2.60;;
18793;SDS011;29610;49.022;12.114;2023-04-25T08:01:52;8.03;;;2.83;;
18793;SDS011;29610;49.022;12.114;2023-04-25T08:04:41;7.10;;;2.93;;
18793;SDS011;29610;49.022;12.114;2023-04-25T08:07:36;8.90;;;3.03;;
18793;SDS011;29610;49.022;12.114;2023-04-25T08:10:26;8.80;;;2.57;;
18793;SDS011;29610;49.022;12.114;2023-04-25T08:13:17;7.90;;;2.40;;
18793;SDS011;29610;49.022;12.114;2023-04-25T08:16:08;6.97;;;2.20;;
18793;SDS011;29610;49.022;12.114;2023-04-25T08:19:00;9.47;;;2.87;;
18793;SDS011;29610;49.022;12.114;2023-04-25T08:21:49;9.03;;;2.47;;
18793;SDS011;29610;49.022;12.114;2023-04-25T08:24:45;7.60;;;2.43;;
18793;SDS011;29610;49.022;12.114;2023-04-25T08:27:34;6.30;;;1.90;;
18793;SDS011;29610;49.022;12.114;2023-04-25T08:30:24;6.80;;;2.07;;
18793;SDS011;29610;49.022;12.114;2023-04-25T08:33:15;7.60;;;1.77;;
18793;SDS011;29610;49.022;12.114;2023-04-25T08:36:05;10.17;;;2.07;;
18793;SDS011;29610;49.022;12.114;2023-04-25T08:38:56;7.60;;;2.30;;
18793;SDS011;29610;49.022;12.114;2023-04-25T08:41:45;6.43;;;1.93;;
18793;SDS011;29610;49.022;12.114;2023-04-25T08:44:34;7.23;;;2.30;;
18793;SDS011;29610;49.022;12.114;2023-04-25T08:47:25;7.00;;;2.67;;
18793;SDS011;29610;49.022;12.114;2023-04-25T08:50:18;7.23;;;2.50;;
18793;SDS011;29610;49.022;12.114;2023-04-25T08:53:12;8.87;;;2.20;;
18793;SDS011;29610;49.022;12.114;2023-04-25T08:56:06;7.40;;;2.73;;
18793;SDS011;29610;49.022;12.114;2023-04-25T08:58:56;7.37;;;2.20;;
18793;SDS011;29610;49.022;12.114;2023-04-25T09:01:46;8.40;;;2.30;;
18793;SDS011;29610;49.022;12.114;2023-04-25T09:04:40;7.00;;;2.27;;
18793;SDS011;29610;49.022;12.114;2023-04-25T09:07:35;7.90;;;2.63;;
18793;SDS011;29610;49.022;12.114;2023-04-25T09:10:26;6.67;;;2.23;;
18793;SDS011;29610;49.022;12.114;2023-04-25T09:13:23;7.80;;;2.57;;
18793;SDS011;29610;49.022;12.114;2023-04-25T09:16:35;7.23;;;2.40;;
18793;SDS011;29610;49.022;12.114;2023-04-25T09:20:04;7.30;;;2.60;;
18793;SDS011;29610;49.022;12.114;2023-04-25T09:23:04;7.43;;;2.40;;
18793;SDS011;29610;49.022;12.114;2023-04-25T09:25:56;6.87;;;2.07;;
18793;SDS011;29610;49.022;12.114;2023-04-25T09:28:47;10.53;;;2.43;;
18793;SDS011;29610;49.022;12.114;2023-04-25T09:31:40;8.20;;;2.97;;
18793;SDS011;29610;49.022;12.114;2023-04-25T09:34:34;7.97;;;3.20;;
18793;SDS011;29610;49.022;12.114;2023-04-25T09:37:29;8.30;;;3.17;;
18793;SDS011;29610;49.022;12.114;2023-04-25T09:40:48;8.60;;;3.10;;
18793;SDS011;29610;49.022;12.114;2023-04-25T09:43:48;8.00;;;3.03;;
18793;SDS011;29610;49.022;12.114;2023-04-25T09:46:39;7.53;;;2.67;;
18793;SDS011;29610;49.022;12.114;2023-04-25T09:49:39;7.17;;;2.77;;
18793;SDS011;29610;49.022;12.114;2023-04-25T09:52:31;6.87;;;2.10;;
18793;SDS011;29610;49.022;12.114;2023-04-25T09:55:32;6.97;;;2.57;;
18793;SDS011;29610;49.022;12.114;2023-04-25T09:58:24;8.40;;;2.20;;
18793;SDS011;29610;49.022;12.114;2023-04-25T10:01:19;6.80;;;2.03;;
18793;SDS011;29610;49.022;12.114;2023-04-25T10:04:27;6.37;;;2.00;;
18793;SDS011;29610;49.022;12.114;2023-04-25T10:07:25;6.43;;;2.23;;
18793;SDS011;29610;49.022;12.114;2023-04-25T10:10:19;6.27;;;2.00;;
18793;SDS011;29610;49.022;12.114;2023-04-25T10:13:15;6.50;;;2.00;;
18793;SDS011;29610;49.022;12.114;2023-04-25T10:16:06;6.30;;;1.87;;
18793;SDS011;29610;49.022;12.114;2023-04-25T10:18:55;6.17;;;1.93;;
18793;SDS011;29610;49.022;12.114;2023-04-25T10:21:46;8.80;;;2.17;;
18793;SDS011;29610;49.022;12.114;2023-04-25T10:24:40;6.20;;;2.03;;
18793;SDS011;29610;49.022;12.114;2023-04-25T10:27:30;6.70;;;2.50;;
18793;SDS011;29610;49.022;12.114;2023-04-25T10:30:19;9.47;;;3.10;;
18793;SDS011;29610;49.022;12.114;2023-04-25T10:33:17;10.23;;;4.07;;
18793;SDS011;29610;49.022;12.114;2023-04-25T10:36:10;9.40;;;3.90;;
18793;SDS011;29610;49.022;12.114;2023-04-25T10:39:03;10.13;;;2.90;;
18793;SDS011;29610;49.022;12.114;2023-04-25T10:41:55;10.33;;;3.73;;
18793;SDS011;29610;49.022;12.114;2023-04-25T10:45:00;10.30;;;4.20;;
18793;SDS011;29610;49.022;12.114;2023-04-25T10:47:53;8.60;;;3.23;;
18793;SDS011;29610;49.022;12.114;2023-04-25T10:50:44;8.83;;;3.30;;
18793;SDS011;29610;49.022;12.114;2023-04-25T10:53:33;7.20;;;3.03;;
18793;SDS011;29610;49.022;12.114;2023-04-25T10:56:23;7.23;;;3.00;;
18793;SDS011;29610;49.022;12.114;2023-04-25T10:59:15;7.70;;;2.50;;
18793;SDS011;29610;49.022;12.114;2023-04-25T11:02:11;7.87;;;2.80;;
18793;SDS011;29610;49.022;12.114;2023-04-25T11:05:01;6.13;;;2.10;;
18793;SDS011;29610;49.022;12.114;2023-04-25T11:07:55;7.20;;;2.20;;
18793;SDS011;29610;49.022;12.114;2023-04-25T11:10:54;7.23;;;2.33;;
18793;SDS011;29610;49.022;12.114;2023-04-25T11:13:47;6.63;;;1.90;;
18793;SDS011;29610;49.022;12.114;2023-04-25T11:16:37;5.90;;;1.70;;
18793;SDS011;29610;49.022;12.114;2023-04-25T11:19:27;6.20;;;1.50;;
18793;SDS011;29610;49.022;12.114;2023-04-25T11:22:20;6.80;;;1.80;;
18793;SDS011;29610;49.022;12.114;2023-04-25T11:25:13;7.00;;;2.00;;
18793;SDS011;29610;49.022;12.114;2023-04-25T11:28:03;7.50;;;1.93;;
18793;SDS011;29610;49.022;12.114;2023-04-25T11:30:52;6.70;;;1.87;;
18793;SDS011;29610;49.022;12.114;2023-04-25T11:33:43;8.50;;;1.93;;
18793;SDS011;29610;49.022;12.114;2023-04-25T11:36:32;6.20;;;1.60;;
18793;SDS011;29610;49.022;12.114;2023-04-25T11:39:23;7.47;;;2.00;;
18793;SDS011;29610;49.022;12.114;2023-04-25T11:42:14;8.77;;;1.60;;
18793;SDS011;29610;49.022;12.114;2023-04-25T11:45:04;10.30;;;2.10;;
18793;SDS011;29610;49.022;12.114;2023-04-25T11:47:55;6.83;;;1.77;;
18793;SDS011;29610;49.022;12.114;2023-04-25T11:50:44;6.47;;;1.90;;
18793;SDS011;29610;49.022;12.114;2023-04-25T11:53:33;7.30;;;1.70;;
18793;SDS011;29610;49.022;12.114;2023-04-25T11:56:23;6.70;;;1.90;;
18793;SDS011;29610;49.022;12.114;2023-04-25T11:59:15;6.90;;;1.70;;
18793;SDS011;29610;49.022;12.114;2023-04-25T12:02:06;7.37;;;2.00;;
18793;SDS011;29610;49.022;12.114;2023-04-25T12:04:58;9.60;;;2.00;;
18793;SDS011;29610;49.022;12.114;2023-04-25T12:08:10;6.90;;;2.00;;
18793;SDS011;29610;49.022;12.114;2023-04-25T12:11:00;6.73;;;2.00;;
18793;SDS011;29610;49.022;12.114;2023-04-25T12:13:51;7.93;;;2.10;;
18793;SDS011;29610;49.022;12.114;2023-04-25T12:16:44;7.77;;;2.20;;
18793;SDS011;29610;49.022;12.114;2023-04-25T12:19:34;6.00;;;1.60;;
18793;SDS011;29610;49.022;12.114;2023-04-25T12:22:27;7.80;;;1.87;;
18793;SDS011;29610;49.022;12.114;2023-04-25T12:25:34;6.90;;;1.90;;
18793;SDS011;29610;49.022;12.114;2023-04-25T12:28:26;9.23;;;1.97;;
18793;SDS011;29610;49.022;12.114;2023-04-25T12:31:15;6.73;;;2.17;;
18793;SDS011;29610;49.022;12.114;2023-04-25T12:34:06;8.20;;;1.80;;
18793;SDS011;29610;49.022;12.114;2023-04-25T12:36:55;6.40;;;1.97;;
18793;SDS011;29610;49.022;12.114;2023-04-25T12:39:44;6.40;;;1.70;;
18793;SDS011;29610;49.022;12.114;2023-04-25T12:42:33;10.63;;;2.30;;
18793;SDS011;29610;49.022;12.114;2023-04-25T12:45:23;8.43;;;2.20;;
18793;SDS011;29610;49.022;12.114;2023-04-25T12:48:12;8.83;;;2.00;;
18793;SDS011;29610;49.022;12.114;2023-04-25T12:51:04;6.63;;;2.00;;
18793;SDS011;29610;49.022;12.114;2023-04-25T12:53:53;7.00;;;1.87;;
18793;SDS011;29610;49.022;12.114;2023-04-25T12:56:44;7.70;;;2.40;;
18793;SDS011;29610;49.022;12.114;2023-04-25T12:59:35;7.10;;;1.90;;
18793;SDS011;29610;49.022;12.114;2023-04-25T13:02:24;7.87;;;1.90;;
18793;SDS011;29610;49.022;12.114;2023-04-25T13:05:17;7.47;;;1.93;;
18793;SDS011;29610;49.022;12.114;2023-04-25T13:08:07;7.00;;;2.07;;
18793;SDS011;29610;49.022;12.114;2023-04-25T13:10:57;6.17;;;1.80;;
18793;SDS011;29610;49.022;12.114;2023-04-25T13:13:47;7.37;;;2.00;;
18793;SDS011;29610;49.022;12.114;2023-04-25T13:16:37;6.50;;;2.00;;
18793;SDS011;29610;49.022;12.114;2023-04-25T13:19:26;8.97;;;2.20;;
18793;SDS011;29610;49.022;12.114;2023-04-25T13:22:15;8.40;;;2.43;;
18793;SDS011;29610;49.022;12.114;2023-04-25T13:25:09;7.47;;;1.87;;
18793;SDS011;29610;49.022;12.114;2023-04-25T13:27:58;6.50;;;2.03;;
18793;SDS011;29610;49.022;12.114;2023-04-25T13:30:47;6.63;;;2.00;;
18793;SDS011;29610;49.022;12.114;2023-04-25T13:33:36;6.50;;;2.20;;
18793;SDS011;29610;49.022;12.114;2023-04-25T13:36:25;6.67;;;1.90;;
18793;SDS011;29610;49.022;12.114;2023-04-25T13:39:16;6.50;;;1.83;;
18793;SDS011;29610;49.022;12.114;2023-04-25T13:42:09;6.80;;;2.13;;
18793;SDS011;29610;49.022;12.114;2023-04-25T13:44:58;12.90;;;2.60;;
18793;SDS011;29610;49.022;12.114;2023-04-25T13:47:47;6.67;;;2.03;;
18793;SDS011;29610;49.022;12.114;2023-04-25T13:50:36;7.93;;;1.70;;
18793;SDS011;29610;49.022;12.114;2023-04-25T13:53:25;11.30;;;2.40;;
18793;SDS011;29610;49.022;12.114;2023-04-25T13:56:14;6.60;;;2.00;;
18793;SDS011;29610;49.022;12.114;2023-04-25T13:59:04;7.77;;;2.20;;
18793;SDS011;29610;49.022;12.114;2023-04-25T14:01:54;7.53;;;2.57;;
18793;SDS011;29610;49.022;12.114;2023-04-25T14:04:43;14.23;;;2.73;;
18793;SDS011;29610;49.022;12.114;2023-04-25T14:07:33;7.47;;;2.00;;
18793;SDS011;29610;49.022;12.114;2023-04-25T14:10:24;6.17;;;2.00;;
18793;SDS011;29610;49.022;12.114;2023-04-25T14:13:13;6.73;;;1.97;;
18793;SDS011;29610;49.022;12.114;2023-04-25T14:16:05;10.17;;;1.70;;
18793;SDS011;29610;49.022;12.114;2023-04-25T14:18:54;7.20;;;1.90;;
18793;SDS011;29610;49.022;12.114;2023-04-25T14:21:43;10.40;;;2.37;;
18793;SDS011;29610;49.022;12.114;2023-04-25T14:24:33;7.30;;;2.07;;
18793;SDS011;29610;49.022;12.114;2023-04-25T14:27:23;7.10;;;1.80;;
18793;SDS011;29610;49.022;12.114;2023-04-25T14:30:15;8.33;;;2.17;;
18793;SDS011;29610;49.022;12.114;2023-04-25T14:33:06;10.07;;;2.20;;
18793;SDS011;29610;49.022;12.114;2023-04-25T14:35:55;8.67;;;1.87;;
18793;SDS011;29610;49.022;12.114;2023-04-25T14:38:45;9.23;;;1.63;;
18793;SDS011;29610;49.022;12.114;2023-04-25T14:41:34;12.47;;;1.70;;
18793;SDS011;29610;49.022;12.114;2023-04-25T14:44:22;6.30;;;1.60;;
18793;SDS011;29610;49.022;12.114;2023-04-25T14:47:11;6.77;;;1.47;;
18793;SDS011;29610;49.022;12.114;2023-04-25T14:50:04;9.60;;;2.00;;
18793;SDS011;29610;49.022;12.114;2023-04-25T14:52:58;7.97;;;1.60;;
18793;SDS011;29610;49.022;12.114;2023-04-25T14:55:47;7.07;;;1.60;;
18793;SDS011;29610;49.022;12.114;2023-04-25T14:58:36;7.60;;;1.50;;
18793;SDS011;29610;49.022;12.114;2023-04-25T15:01:26;6.40;;;1.33;;
18793;SDS011;29610;49.022;12.114;2023-04-25T15:04:16;6.37;;;1.43;;
18793;SDS011;29610;49.022;12.114;2023-04-25T15:07:08;7.97;;;1.70;;
18793;SDS011;29610;49.022;12.114;2023-04-25T15:09:59;5.70;;;1.10;;
18793;SDS011;29610;49.022;12.114;2023-04-25T15:12:48;6.23;;;1.40;;
18793;SDS011;29610;49.022;12.114;2023-04-25T15:15:40;6.20;;;1.50;;
18793;SDS011;29610;49.022;12.114;2023-04-25T15:18:31;5.80;;;1.47;;
18793;SDS011;29610;49.022;12.114;2023-04-25T15:21:20;6.80;;;1.40;;
18793;SDS011;29610;49.022;12.114;2023-04-25T15:24:11;6.20;;;1.53;;
18793;SDS011;29610;49.022;12.114;2023-04-25T15:27:02;6.80;;;1.50;;
18793;SDS011;29610;49.022;12.114;2023-04-25T15:29:51;6.40;;;1.50;;
18793;SDS011;29610;49.022;12.114;2023-04-25T15:32:40;6.33;;;1.73;;
18793;SDS011;29610;49.022;12.114;2023-04-25T15:35:30;13.70;;;1.73;;
18793;SDS011;29610;49.022;12.114;2023-04-25T15:38:18;5.90;;;1.53;;
18793;SDS011;29610;49.022;12.114;2023-04-25T15:41:09;5.73;;;1.20;;
18793;SDS011;29610;49.022;12.114;2023-04-25T15:44:00;8.90;;;1.40;;
18793;SDS011;29610;49.022;12.114;2023-04-25T15:46:50;7.30;;;1.40;;
18793;SDS011;29610;49.022;12.114;2023-04-25T15:49:41;6.10;;;1.60;;
18793;SDS011;29610;49.022;12.114;2023-04-25T15:52:30;6.47;;;1.97;;
18793;SDS011;29610;49.022;12.114;2023-04-25T15:55:20;6.43;;;1.90;;
18793;SDS011;29610;49.022;12.114;2023-04-25T15:58:14;6.00;;;1.27;;
18793;SDS011;29610;49.022;12.114;2023-04-25T16:01:04;5.50;;;1.23;;
18793;SDS011;29610;49.022;12.114;2023-04-25T16:03:53;6.33;;;1.37;;
18793;SDS011;29610;49.022;12.114;2023-04-25T16:06:44;6.40;;;1.60;;
18793;SDS011;29610;49.022;12.114;2023-04-25T16:09:33;6.40;;;1.73;;
18793;SDS011;29610;49.022;12.114;2023-04-25T16:12:25;7.00;;;1.47;;
18793;SDS011;29610;49.022;12.114;2023-04-25T16:15:16;6.87;;;1.43;;
18793;SDS011;29610;49.022;12.114;2023-04-25T16:18:05;6.20;;;1.63;;
18793;SDS011;29610;49.022;12.114;2023-04-25T16:20:55;7.50;;;2.20;;
18793;SDS011;29610;49.022;12.114;2023-04-25T16:23:45;7.73;;;2.33;;
18793;SDS011;29610;49.022;12.114;2023-04-25T16:26:35;12.77;;;4.53;;
18793;SDS011;29610;49.022;12.114;2023-04-25T16:29:24;7.43;;;2.23;;
18793;SDS011;29610;49.022;12.114;2023-04-25T16:32:16;10.03;;;2.20;;
18793;SDS011;29610;49.022;12.114;2023-04-25T16:35:05;10.90;;;2.90;;
18793;SDS011;29610;49.022;12.114;2023-04-25T16:37:55;7.47;;;1.90;;
18793;SDS011;29610;49.022;12.114;2023-04-25T16:40:44;7.57;;;2.33;;
18793;SDS011;29610;49.022;12.114;2023-04-25T16:43:34;8.13;;;2.77;;
18793;SDS011;29610;49.022;12.114;2023-04-25T16:46:25;7.07;;;1.90;;
18793;SDS011;29610;49.022;12.114;2023-04-25T16:49:16;8.70;;;2.70;;
18793;SDS011;29610;49.022;12.114;2023-04-25T16:52:05;8.20;;;2.23;;
18793;SDS011;29610;49.022;12.114;2023-04-25T16:54:55;6.10;;;1.80;;
18793;SDS011;29610;49.022;12.114;2023-04-25T16:57:44;8.83;;;2.37;;
18793;SDS011;29610;49.022;12.114;2023-04-25T17:00:33;7.47;;;2.00;;
18793;SDS011;29610;49.022;12.114;2023-04-25T17:03:24;7.50;;;2.03;;